Time;durP1;ratioP1;P1;durP2;ratioP2;P2;SDS_P1;SDS_P2;PMS_P1;PMS_P2;Temp;Humidity;BMP_temperature;BMP_pressure;BME280_temperature;BME280_humidity;BME280_pressure;Samples;Min_cycle;Max_cycle;Signal;HPM_P1;HPM_P2
2021/06/27 00:00:14;;;;;;;35.25;22.98;;;20.10;99.90;;;;;;4993591;28;20177;-82
2021/06/27 00:02:40;;;;;;;35.92;24.48;;;20.00;99.90;;;;;;4992230;28;20708;-81
2021/06/27 00:05:07;;;;;;;41.20;24.48;;;19.90;99.90;;;;;;4992272;28;20165;-82
2021/06/27 00:07:33;;;;;;;37.47;23.83;;;19.80;99.90;;;;;;4993212;28;20244;-82
2021/06/27 00:09:59;;;;;;;41.50;25.58;;;19.80;99.90;;;;;;4992709;28;20263;-80
2021/06/27 00:12:24;;;;;;;36.90;26.45;;;19.80;99.90;;;;;;4992816;28;20677;-80
2021/06/27 00:14:51;;;;;;;39.35;26.10;;;19.80;99.90;;;;;;4992775;28;20177;-82
2021/06/27 00:17:16;;;;;;;36.88;25.83;;;19.90;99.90;;;;;;4991578;28;20292;-81
2021/06/27 00:19:42;;;;;;;40.83;26.05;;;19.90;99.90;;;;;;4992621;28;20264;-80
2021/06/27 00:22:08;;;;;;;41.53;26.88;;;19.80;99.90;;;;;;4991195;28;20193;-80
2021/06/27 00:24:33;;;;;;;42.55;26.15;;;20.00;99.90;;;;;;4991397;28;20227;-80
2021/06/27 00:26:59;;;;;;;40.88;26.23;;;19.80;99.90;;;;;;4991491;28;20169;-82
2021/06/27 00:29:25;;;;;;;39.45;26.48;;;19.70;99.90;;;;;;4992418;28;20173;-80
2021/06/27 00:31:51;;;;;;;41.80;27.20;;;19.50;99.90;;;;;;4973132;28;20185;-79
2021/06/27 00:34:16;;;;;;;45.85;26.95;;;19.50;99.90;;;;;;4972889;28;20158;-81
2021/06/27 00:36:42;;;;;;;40.00;26.88;;;19.40;99.90;;;;;;4973192;28;20177;-80
2021/06/27 00:39:08;;;;;;;45.00;28.45;;;19.60;99.90;;;;;;4973070;28;20174;-81
2021/06/27 00:41:33;;;;;;;39.10;27.63;;;19.60;99.90;;;;;;4971494;28;20646;-79
2021/06/27 00:43:59;;;;;;;44.28;29.02;;;19.40;99.90;;;;;;4987478;28;20251;-80
2021/06/27 00:46:25;;;;;;;43.20;29.52;;;19.40;99.90;;;;;;4971383;28;20313;-80
2021/06/27 00:48:51;;;;;;;47.38;29.45;;;19.50;99.90;;;;;;4974289;28;20170;-80
2021/06/27 00:51:17;;;;;;;51.22;31.50;;;19.40;99.90;;;;;;4991329;28;20194;-80
2021/06/27 00:53:43;;;;;;;50.40;31.70;;;19.40;99.90;;;;;;4990815;28;20272;-80
2021/06/27 00:56:10;;;;;;;46.85;30.58;;;19.50;99.90;;;;;;4975115;28;20180;-80
2021/06/27 00:58:36;;;;;;;44.92;29.77;;;19.50;99.90;;;;;;4990989;28;20206;-81
2021/06/27 01:01:06;;;;;;;46.15;29.38;;;19.50;99.90;;;;;;4991216;28;20693;-80
2021/06/27 01:03:31;;;;;;;48.05;31.77;;;19.50;99.90;;;;;;4991242;28;20194;-80
2021/06/27 01:05:57;;;;;;;48.72;30.73;;;19.50;99.90;;;;;;4990866;28;20184;-80
2021/06/27 01:08:23;;;;;;;51.85;30.63;;;19.50;99.90;;;;;;4975917;28;20626;-80
2021/06/27 01:10:49;;;;;;;53.42;32.20;;;19.60;99.90;;;;;;4991040;28;20178;-80
2021/06/27 01:13:21;;;;;;;55.53;31.75;;;19.80;99.90;;;;;;4974871;28;20189;-80
2021/06/27 01:15:47;;;;;;;48.80;30.73;;;19.70;99.90;;;;;;4990763;28;20177;-80
2021/06/27 01:18:13;;;;;;;49.50;31.40;;;19.60;99.90;;;;;;4975821;28;20558;-79
2021/06/27 01:20:40;;;;;;;51.05;31.73;;;19.60;99.90;;;;;;4990831;28;20181;-80
2021/06/27 01:23:09;;;;;;;54.08;30.95;;;19.70;99.90;;;;;;4974523;28;20189;-80
2021/06/27 01:25:38;;;;;;;46.50;31.55;;;19.50;99.90;;;;;;4976004;28;20710;-80
2021/06/27 01:28:05;;;;;;;51.70;31.25;;;19.30;99.90;;;;;;4990534;28;20174;-80
2021/06/27 01:30:31;;;;;;;55.38;31.70;;;19.30;99.90;;;;;;4975696;28;20209;-80
2021/06/27 01:32:59;;;;;;;55.40;32.60;;;19.40;99.90;;;;;;4975880;28;20260;-80
2021/06/27 01:35:26;;;;;;;53.15;34.45;;;19.50;99.90;;;;;;5002785;28;20219;-80
2021/06/27 01:37:56;;;;;;;53.35;34.15;;;19.40;99.90;;;;;;4995298;28;20209;-80
2021/06/27 01:40:23;;;;;;;60.67;34.92;;;19.50;99.90;;;;;;4994140;28;20169;-80
2021/06/27 01:42:51;;;;;;;50.90;32.50;;;19.60;99.90;;;;;;4994829;28;20188;-80
2021/06/27 01:45:22;;;;;;;60.15;35.65;;;19.30;99.90;;;;;;4993657;28;20629;-80
2021/06/27 01:48:00;;;;;;;63.13;36.15;;;19.10;99.90;;;;;;4994965;28;20256;-80
2021/06/27 01:50:26;;;;;;;59.92;35.40;;;19.20;99.90;;;;;;4995152;28;20739;-80
2021/06/27 01:52:54;;;;;;;59.30;35.55;;;19.10;99.90;;;;;;4993627;28;20197;-80
2021/06/27 01:55:20;;;;;;;60.33;37.28;;;19.10;99.90;;;;;;4995051;28;20176;-80
2021/06/27 01:57:46;;;;;;;59.60;37.50;;;19.20;99.90;;;;;;4993408;28;20205;-80
2021/06/27 02:00:12;;;;;;;61.97;37.40;;;19.20;99.90;;;;;;4993000;28;20200;-80
2021/06/27 02:02:38;;;;;;;56.30;36.35;;;19.20;99.90;;;;;;4993651;28;20185;-80
2021/06/27 02:05:06;;;;;;;59.63;37.47;;;19.30;99.90;;;;;;4995161;28;20236;-81
2021/06/27 02:07:32;;;;;;;57.08;36.90;;;19.20;99.90;;;;;;4993598;28;20165;-83
2021/06/27 02:09:58;;;;;;;72.30;38.40;;;19.20;99.90;;;;;;4994632;28;20165;-85
2021/06/27 02:12:24;;;;;;;57.33;35.95;;;19.20;99.90;;;;;;4994793;28;20196;-83
2021/06/27 02:14:49;;;;;;;62.80;36.92;;;19.20;99.90;;;;;;4993629;28;20185;-82
2021/06/27 02:17:15;;;;;;;60.83;36.50;;;19.20;99.90;;;;;;4993908;28;20300;-84
2021/06/27 02:19:41;;;;;;;60.42;37.38;;;19.10;99.90;;;;;;4993454;28;20169;-84
2021/06/27 02:22:06;;;;;;;60.25;38.33;;;19.20;99.90;;;;;;4994705;28;20189;-84
2021/06/27 02:24:33;;;;;;;64.95;36.25;;;19.40;99.90;;;;;;4993397;28;20224;-83
2021/06/27 02:26:59;;;;;;;66.13;38.50;;;19.60;99.90;;;;;;4994712;28;20511;-83
2021/06/27 02:29:25;;;;;;;69.55;39.78;;;19.70;99.90;;;;;;4993576;28;20248;-84
2021/06/27 02:31:51;;;;;;;57.42;36.38;;;19.80;99.90;;;;;;4994467;28;20193;-84
2021/06/27 02:34:19;;;;;;;58.72;36.20;;;19.70;99.90;;;;;;4993506;28;20648;-83
2021/06/27 02:36:45;;;;;;;55.55;36.60;;;19.30;99.90;;;;;;4993225;28;20177;-82
2021/06/27 02:39:12;;;;;;;66.82;38.28;;;19.20;99.90;;;;;;4994161;28;20192;-82
2021/06/27 02:41:37;;;;;;;64.78;37.95;;;19.20;99.90;;;;;;4994449;28;20173;-82
2021/06/27 02:44:04;;;;;;;66.90;39.10;;;19.20;99.90;;;;;;4994210;28;20242;-83
2021/06/27 02:46:30;;;;;;;67.90;40.90;;;19.30;99.90;;;;;;4994404;28;20178;-83
2021/06/27 02:48:56;;;;;;;70.28;39.83;;;19.40;99.90;;;;;;4993157;28;20196;-82
2021/06/27 02:51:22;;;;;;;67.03;39.47;;;19.40;99.90;;;;;;4993175;28;20169;-81
2021/06/27 02:53:48;;;;;;;72.65;41.42;;;19.60;99.90;;;;;;4992823;28;20530;-81
2021/06/27 02:56:13;;;;;;;67.28;40.33;;;19.60;99.90;;;;;;4992736;28;20223;-85
2021/06/27 02:58:42;;;;;;;72.15;40.67;;;19.80;99.90;;;;;;4993972;28;20251;-83
2021/06/27 03:01:09;;;;;;;73.63;42.03;;;19.70;99.90;;;;;;4992500;28;20236;-82
2021/06/27 03:03:36;;;;;;;61.03;39.38;;;19.60;99.90;;;;;;4993394;28;20189;-85
2021/06/27 03:06:02;;;;;;;61.45;38.03;;;19.40;99.90;;;;;;4991695;28;20200;-82
2021/06/27 03:08:28;;;;;;;61.83;37.88;;;19.20;99.90;;;;;;4991418;28;20646;-83
2021/06/27 03:10:54;;;;;;;60.50;37.17;;;19.10;99.90;;;;;;4990868;28;20177;-81
2021/06/27 03:13:20;;;;;;;67.05;40.13;;;19.10;99.90;;;;;;4991648;28;20696;-82
2021/06/27 03:15:45;;;;;;;61.60;37.20;;;19.10;99.90;;;;;;4992881;28;20577;-84
2021/06/27 03:18:12;;;;;;;65.63;39.72;;;19.00;99.90;;;;;;4992609;28;20254;-83
2021/06/27 03:20:37;;;;;;;58.25;37.65;;;19.10;99.90;;;;;;4992323;28;20218;-82
2021/06/27 03:23:03;;;;;;;64.60;39.05;;;19.30;99.90;;;;;;4992629;28;20597;-83
2021/06/27 03:25:30;;;;;;;65.97;38.60;;;19.20;99.90;;;;;;4993882;28;20174;-82
2021/06/27 03:27:56;;;;;;;65.93;39.53;;;19.10;99.90;;;;;;4993913;28;20204;-82
2021/06/27 03:30:22;;;;;;;66.15;38.67;;;19.10;99.90;;;;;;4993866;28;20197;-83
2021/06/27 03:32:48;;;;;;;62.65;38.10;;;19.10;99.90;;;;;;4992493;28;20196;-84
2021/06/27 03:35:14;;;;;;;60.70;37.83;;;19.00;99.90;;;;;;4993722;28;20166;-82
2021/06/27 03:37:48;;;;;;;74.07;38.40;;;19.00;99.90;;;;;;4993269;28;20292;-83
2021/06/27 03:40:15;;;;;;;57.03;36.47;;;19.00;99.90;;;;;;4992463;28;20544;-82
2021/06/27 03:42:40;;;;;;;69.50;37.03;;;19.10;99.90;;;;;;4992309;28;20189;-85
2021/06/27 03:45:07;;;;;;;59.58;37.60;;;19.00;99.90;;;;;;4992227;28;20180;-84
2021/06/27 03:47:32;;;;;;;71.38;40.10;;;19.10;99.90;;;;;;4992653;28;20177;-82
2021/06/27 03:49:58;;;;;;;63.03;38.17;;;18.70;99.90;;;;;;4992243;28;20529;-82
2021/06/27 03:52:23;;;;;;;62.30;39.33;;;18.80;99.90;;;;;;4993598;28;20197;-82
2021/06/27 03:54:49;;;;;;;73.47;38.88;;;18.90;99.90;;;;;;4993581;28;20215;-81
2021/06/27 03:57:15;;;;;;;64.30;38.30;;;18.90;99.90;;;;;;4992152;28;20208;-83
2021/06/27 03:59:41;;;;;;;64.82;39.35;;;18.80;99.90;;;;;;4993502;28;20527;-83
2021/06/27 04:02:06;;;;;;;63.92;36.17;;;18.70;99.90;;;;;;4993508;28;20204;-83
2021/06/27 04:04:32;;;;;;;65.28;38.60;;;18.70;99.90;;;;;;4992382;28;20266;-82
2021/06/27 04:06:58;;;;;;;53.97;36.50;;;18.70;99.90;;;;;;4993497;28;20648;-82
2021/06/27 04:09:23;;;;;;;62.75;37.80;;;18.70;99.90;;;;;;4992174;28;20191;-85
2021/06/27 04:11:49;;;;;;;60.15;37.42;;;18.70;99.90;;;;;;4992222;28;20197;-82
2021/06/27 04:14:15;;;;;;;63.17;37.30;;;18.70;99.90;;;;;;4991852;28;20320;-83
2021/06/27 04:16:40;;;;;;;61.72;38.03;;;18.70;99.90;;;;;;4993115;28;20181;-84
2021/06/27 04:19:06;;;;;;;64.93;38.15;;;18.70;99.90;;;;;;4992936;28;20288;-82
2021/06/27 04:21:31;;;;;;;55.78;35.58;;;18.80;99.90;;;;;;4991999;28;20618;-83
2021/06/27 04:23:57;;;;;;;58.15;36.78;;;18.90;99.90;;;;;;4994888;28;20196;-82
2021/06/27 04:26:23;;;;;;;67.53;38.60;;;18.90;99.90;;;;;;4995363;28;20182;-81
2021/06/27 04:28:49;;;;;;;57.25;36.83;;;19.00;99.90;;;;;;4995340;28;20205;-80
2021/06/27 04:31:14;;;;;;;60.05;36.88;;;18.90;99.90;;;;;;4996275;28;20225;-84
2021/06/27 04:33:40;;;;;;;57.85;37.05;;;18.80;99.90;;;;;;4995220;28;20201;-81
2021/06/27 04:36:06;;;;;;;55.95;36.53;;;18.90;99.90;;;;;;4996599;28;20176;-83
2021/06/27 04:38:31;;;;;;;62.65;35.40;;;18.90;99.90;;;;;;5011303;28;20296;-82
2021/06/27 04:40:57;;;;;;;58.60;36.40;;;18.80;99.90;;;;;;4994941;28;20169;-82
2021/06/27 04:43:23;;;;;;;59.45;36.20;;;18.90;99.90;;;;;;4994854;28;20234;-82
2021/06/27 04:45:49;;;;;;;55.10;35.63;;;18.90;99.90;;;;;;4995009;28;20176;-81
2021/06/27 04:48:15;;;;;;;53.40;35.55;;;19.00;99.90;;;;;;4994923;28;20227;-80
2021/06/27 04:50:40;;;;;;;52.13;35.08;;;19.20;99.90;;;;;;4994704;28;20189;-81
2021/06/27 04:53:11;;;;;;;50.65;34.42;;;19.30;99.90;;;;;;4994813;28;20196;-80
2021/06/27 04:55:37;;;;;;;54.28;35.33;;;19.40;99.90;;;;;;4994965;28;20204;-80
2021/06/27 04:58:03;;;;;;;54.17;34.42;;;19.60;99.90;;;;;;4995960;28;20304;-80
2021/06/27 05:00:29;;;;;;;46.67;32.00;;;19.90;99.90;;;;;;4996271;28;20637;-80
2021/06/27 05:02:55;;;;;;;51.97;32.63;;;20.00;99.90;;;;;;4994572;28;20252;-80
2021/06/27 05:05:21;;;;;;;51.33;33.80;;;20.10;99.90;;;;;;4995704;28;20605;-80
2021/06/27 05:07:46;;;;;;;50.55;33.20;;;20.20;99.90;;;;;;4994470;28;20169;-80
2021/06/27 05:10:12;;;;;;;47.03;32.20;;;20.20;99.90;;;;;;4995541;28;20188;-81
2021/06/27 05:12:38;;;;;;;49.72;32.80;;;20.10;99.90;;;;;;4995725;28;20189;-80
2021/06/27 05:15:04;;;;;;;44.25;31.13;;;19.90;99.90;;;;;;4994607;28;20541;-80
2021/06/27 05:17:30;;;;;;;51.67;32.22;;;19.80;99.90;;;;;;4994023;28;20204;-80
2021/06/27 05:19:56;;;;;;;44.75;29.85;;;19.80;99.90;;;;;;4995449;28;20775;-81
2021/06/27 05:22:21;;;;;;;42.15;31.92;;;19.80;99.90;;;;;;4993804;28;20201;-80
2021/06/27 05:24:47;;;;;;;41.92;30.45;;;20.00;99.90;;;;;;4994340;28;20634;-82
2021/06/27 05:27:13;;;;;;;47.30;30.77;;;20.20;99.90;;;;;;4993959;28;20717;-80
2021/06/27 05:29:38;;;;;;;39.85;29.70;;;20.40;99.90;;;;;;4995299;28;20252;-80
2021/06/27 05:32:04;;;;;;;44.85;29.08;;;20.50;99.90;;;;;;4995029;28;20208;-80
2021/06/27 05:34:30;;;;;;;39.42;29.40;;;20.60;99.90;;;;;;4994496;28;20188;-80
2021/06/27 05:36:57;;;;;;;43.05;30.30;;;20.50;99.90;;;;;;4994306;28;20177;-82
2021/06/27 05:39:23;;;;;;;36.88;27.50;;;20.40;99.90;;;;;;4994111;28;20231;-82
2021/06/27 05:41:49;;;;;;;50.03;29.67;;;20.40;99.90;;;;;;4993957;28;20201;-82
2021/06/27 05:44:15;;;;;;;49.33;29.50;;;20.10;99.90;;;;;;4995432;28;20704;-83
2021/06/27 05:46:41;;;;;;;40.97;28.35;;;20.10;99.90;;;;;;4994521;28;20181;-84
2021/06/27 05:49:08;;;;;;;34.97;27.30;;;20.10;99.90;;;;;;4994736;28;20628;-83
2021/06/27 05:51:37;;;;;;;36.08;26.30;;;20.00;99.90;;;;;;4994359;28;20184;-84
2021/06/27 05:54:03;;;;;;;38.38;26.98;;;20.00;99.90;;;;;;4993959;28;20193;-84
2021/06/27 05:56:29;;;;;;;32.90;25.63;;;20.10;99.90;;;;;;4994254;28;20189;-83
2021/06/27 05:58:54;;;;;;;34.13;25.23;;;20.10;99.90;;;;;;4994053;28;20209;-84
2021/06/27 06:01:20;;;;;;;37.90;24.58;;;20.00;99.90;;;;;;4994038;28;20545;-85
2021/06/27 06:03:45;;;;;;;38.40;26.92;;;20.10;99.90;;;;;;4993612;28;20189;-84
2021/06/27 06:06:12;;;;;;;34.45;24.48;;;20.20;99.90;;;;;;4995127;28;20260;-83
2021/06/27 06:08:43;;;;;;;40.20;26.67;;;20.40;99.90;;;;;;4993817;28;20177;-83
2021/06/27 06:11:10;;;;;;;33.80;26.05;;;20.60;99.90;;;;;;4993102;28;20169;-85
2021/06/27 06:13:37;;;;;;;42.60;26.30;;;20.50;99.90;;;;;;4992710;28;20621;-80
2021/06/27 06:16:06;;;;;;;35.40;24.45;;;20.60;99.90;;;;;;4993005;28;20172;-81
2021/06/27 06:18:32;;;;;;;31.40;23.67;;;20.70;99.90;;;;;;4994189;28;20308;-81
2021/06/27 06:20:58;;;;;;;33.50;24.58;;;20.90;99.90;;;;;;4993134;28;20552;-82
2021/06/27 06:23:24;;;;;;;30.35;23.67;;;21.10;99.90;;;;;;4993053;28;20243;-82
2021/06/27 06:25:50;;;;;;;31.35;23.85;;;21.30;99.90;;;;;;4994117;28;20169;-81
2021/06/27 06:28:16;;;;;;;38.75;24.02;;;21.40;99.90;;;;;;4994238;28;20173;-80
2021/06/27 06:30:41;;;;;;;35.00;23.90;;;21.40;99.90;;;;;;4988236;28;20268;-82
2021/06/27 06:33:13;;;;;;;34.83;23.75;;;21.50;99.90;;;;;;4994149;28;20612;-81
2021/06/27 06:35:42;;;;;;;38.30;25.10;;;21.50;99.90;;;;;;4990442;28;20174;-80
2021/06/27 06:38:09;;;;;;;28.08;24.00;;;21.50;99.90;;;;;;4990733;28;20259;-82
2021/06/27 06:40:37;;;;;;;31.08;23.55;;;21.40;99.90;;;;;;5003493;28;20643;-82
2021/06/27 06:43:03;;;;;;;33.00;23.25;;;21.10;99.90;;;;;;4990559;28;20201;-83
2021/06/27 06:45:30;;;;;;;32.70;21.80;;;21.10;99.90;;;;;;4992662;28;20181;-85
2021/06/27 06:47:56;;;;;;;34.22;23.13;;;21.20;99.90;;;;;;4993730;28;20162;-83
2021/06/27 06:50:22;;;;;;;33.10;22.67;;;21.30;99.90;;;;;;4988988;28;20189;-84
2021/06/27 06:52:49;;;;;;;32.85;23.95;;;21.40;99.90;;;;;;4974993;28;20262;-84
2021/06/27 06:55:14;;;;;;;27.38;21.73;;;21.50;99.90;;;;;;4982281;28;20185;-85
2021/06/27 06:57:40;;;;;;;26.77;21.55;;;21.80;99.90;;;;;;4994461;28;20606;-85
2021/06/27 07:00:09;;;;;;;43.35;21.13;;;21.90;99.90;;;;;;4992523;28;20220;-84
2021/06/27 07:02:36;;;;;;;30.65;21.60;;;22.00;99.90;;;;;;4991485;28;20188;-81
2021/06/27 07:05:02;;;;;;;23.88;20.58;;;22.10;99.90;;;;;;4988736;28;20181;-84
2021/06/27 07:07:27;;;;;;;23.52;19.38;;;22.30;99.90;;;;;;4992079;28;20176;-82
2021/06/27 07:09:53;;;;;;;34.45;21.77;;;22.40;99.90;;;;;;4992487;28;20180;-83
2021/06/27 07:12:19;;;;;;;24.55;19.48;;;22.60;99.90;;;;;;4973386;28;20193;-82
2021/06/27 07:14:45;;;;;;;24.08;19.98;;;22.70;99.90;;;;;;4973074;28;20224;-84
2021/06/27 07:17:11;;;;;;;24.02;18.88;;;23.00;99.90;;;;;;4974284;28;20166;-83
2021/06/27 07:19:37;;;;;;;21.60;18.13;;;22.80;99.90;;;;;;4973966;28;20173;-82
2021/06/27 07:22:02;;;;;;;24.98;18.15;;;23.00;99.90;;;;;;4972499;28;20188;-82
2021/06/27 07:24:28;;;;;;;25.80;18.10;;;22.90;99.90;;;;;;4988320;28;20638;-83
2021/06/27 07:26:54;;;;;;;24.90;18.08;;;23.00;99.90;;;;;;4988646;28;20627;-82
2021/06/27 07:29:19;;;;;;;27.65;18.45;;;23.00;99.90;;;;;;4972244;28;20182;-81
2021/06/27 07:31:45;;;;;;;23.08;17.73;;;23.20;99.90;;;;;;4988561;28;20597;-83
2021/06/27 07:34:11;;;;;;;27.67;16.25;;;23.20;99.90;;;;;;4973553;28;20799;-82
2021/06/27 07:36:36;;;;;;;22.67;16.70;;;23.10;99.90;;;;;;4988612;28;20166;-82
2021/06/27 07:39:02;;;;;;;20.65;16.42;;;23.20;99.90;;;;;;4988476;28;20348;-82
2021/06/27 07:41:28;;;;;;;20.63;17.40;;;23.20;99.90;;;;;;4988636;28;20184;-81
2021/06/27 07:43:54;;;;;;;21.10;17.52;;;23.00;99.90;;;;;;4988565;28;20194;-82
2021/06/27 07:46:20;;;;;;;19.05;16.38;;;23.00;99.90;;;;;;4973959;28;20645;-82
2021/06/27 07:48:45;;;;;;;20.50;17.20;;;22.80;99.90;;;;;;4988944;28;20166;-82
2021/06/27 07:51:11;;;;;;;20.10;17.05;;;22.90;99.90;;;;;;4988786;28;20645;-83
2021/06/27 07:53:37;;;;;;;18.80;16.67;;;23.00;99.90;;;;;;4974124;28;20189;-93
2021/06/27 07:56:03;;;;;;;21.27;16.08;;;23.30;99.90;;;;;;4991160;28;20170;-93
2021/06/27 07:58:29;;;;;;;28.70;16.58;;;23.30;99.90;;;;;;4977888;28;20221;-95
2021/06/27 08:00:54;;;;;;;20.13;16.83;;;23.40;99.90;;;;;;4979916;28;20188;-92
2021/06/27 08:03:20;;;;;;;18.92;16.45;;;23.60;99.90;;;;;;4995379;28;20190;-85
2021/06/27 08:05:46;;;;;;;19.73;15.98;;;23.60;99.90;;;;;;4980061;28;20178;-93
2021/06/27 08:08:13;;;;;;;17.05;15.32;;;23.30;99.90;;;;;;4997075;28;20174;-93
2021/06/27 08:10:39;;;;;;;20.23;16.08;;;23.30;99.90;;;;;;4994536;28;20173;-94
2021/06/27 08:13:04;;;;;;;23.83;15.77;;;23.10;99.90;;;;;;4994337;28;20200;-90
2021/06/27 08:15:30;;;;;;;25.48;15.82;;;23.50;99.90;;;;;;4980075;28;20276;-88
2021/06/27 08:17:56;;;;;;;19.13;16.50;;;23.60;99.90;;;;;;4994664;28;20264;-94
2021/06/27 08:20:23;;;;;;;17.42;15.63;;;23.50;99.90;;;;;;4979200;28;20173;-93
2021/06/27 08:22:49;;;;;;;23.50;16.05;;;23.40;99.90;;;;;;4962276;28;20603;-90
2021/06/27 08:25:15;;;;;;;19.35;16.02;;;23.40;99.90;;;;;;4995531;28;20586;-82
2021/06/27 08:27:41;;;;;;;17.15;15.45;;;23.50;99.90;;;;;;4978267;28;20174;-93
2021/06/27 08:30:09;;;;;;;17.30;15.55;;;23.60;99.90;;;;;;4980318;28;20236;-95
2021/06/27 08:32:45;;;;;;;20.88;15.45;;;23.80;99.90;;;;;;4980228;28;20192;-87
2021/06/27 08:35:16;;;;;;;19.77;17.20;;;23.60;99.90;;;;;;4978370;28;20169;-91
2021/06/27 08:37:42;;;;;;;22.10;16.60;;;23.60;99.90;;;;;;4979908;28;20201;-96
2021/06/27 08:40:11;;;;;;;17.65;15.38;;;23.60;99.90;;;;;;4979638;28;20166;-95
2021/06/27 08:42:37;;;;;;;20.75;16.70;;;23.40;99.90;;;;;;4977818;28;20248;-92
2021/06/27 08:45:05;;;;;;;22.30;15.07;;;23.60;99.90;;;;;;4979267;28;20253;-90
2021/06/27 08:47:33;;;;;;;20.15;16.08;;;23.70;99.90;;;;;;4996082;28;20681;-92
2021/06/27 08:50:00;;;;;;;18.30;15.10;;;23.60;99.90;;;;;;4994199;28;20217;-92
2021/06/27 08:52:25;;;;;;;16.20;14.73;;;23.70;99.90;;;;;;4979100;28;20670;-94
2021/06/27 08:54:52;;;;;;;19.15;14.55;;;23.70;99.90;;;;;;4994617;28;20174;-93
2021/06/27 08:57:19;;;;;;;16.65;14.52;;;23.90;99.90;;;;;;4993971;28;20205;-94
2021/06/27 08:59:48;;;;;;;17.80;15.13;;;24.00;99.90;;;;;;4978701;28;20661;-94
2021/06/27 09:02:14;;;;;;;19.38;14.73;;;24.00;99.90;;;;;;4977156;28;20193;-92
2021/06/27 09:04:41;;;;;;;18.40;15.40;;;24.10;99.90;;;;;;4978429;28;20178;-94
2021/06/27 09:07:27;;;;;;;16.25;14.55;;;24.50;99.90;;;;;;4994681;28;20165;-93
2021/06/27 09:09:53;;;;;;;15.98;14.45;;;24.80;99.90;;;;;;4976952;28;20265;-94
2021/06/27 09:12:19;;;;;;;14.30;13.02;;;24.90;99.90;;;;;;4981542;28;20201;-92
2021/06/27 09:14:46;;;;;;;15.68;14.18;;;25.00;99.90;;;;;;4999735;28;20631;-90
2021/06/27 09:17:23;;;;;;;13.38;11.95;;;25.10;99.90;;;;;;4987881;28;20189;-96
2021/06/27 09:19:54;;;;;;;14.00;12.52;;;25.10;99.90;;;;;;4984034;28;20837;-82
2021/06/27 09:22:26;;;;;;;14.80;13.35;;;25.20;99.90;;;;;;4975763;28;20292;-79
2021/06/27 09:24:53;;;;;;;23.48;13.43;;;25.00;99.90;;;;;;4975917;28;20213;-79
2021/06/27 09:27:24;;;;;;;13.25;12.07;;;25.20;99.90;;;;;;4990999;28;20173;-78
2021/06/27 09:29:51;;;;;;;12.13;11.13;;;25.40;99.90;;;;;;4976001;28;20174;-79
2021/06/27 09:32:17;;;;;;;13.93;12.48;;;25.50;99.90;;;;;;4977470;28;20190;-81
2021/06/27 09:34:44;;;;;;;16.13;11.05;;;25.80;99.90;;;;;;4978130;28;20227;-82
2021/06/27 09:37:13;;;;;;;11.60;10.70;;;26.00;99.90;;;;;;4977219;28;20647;-85
2021/06/27 09:39:58;;;;;;;11.90;10.80;;;26.00;99.90;;;;;;4977421;28;20201;-83
2021/06/27 09:42:23;;;;;;;12.55;11.45;;;26.40;99.90;;;;;;4975552;28;20523;-83
2021/06/27 09:45:03;;;;;;;13.45;12.05;;;26.20;99.90;;;;;;4975497;28;20237;-81
2021/06/27 09:47:29;;;;;;;11.50;10.60;;;25.90;99.90;;;;;;4976088;28;20236;-83
2021/06/27 09:49:55;;;;;;;12.00;11.00;;;25.50;99.90;;;;;;4976753;28;20166;-83
2021/06/27 09:52:38;;;;;;;10.68;9.88;;;25.30;99.90;;;;;;4976482;28;20229;-81
2021/06/27 09:55:10;;;;;;;11.70;9.50;;;25.40;99.90;;;;;;4976244;28;20197;-84
2021/06/27 09:57:36;;;;;;;11.85;10.70;;;25.40;99.90;;;;;;4975861;28;20260;-85
2021/06/27 10:00:26;;;;;;;11.40;10.50;;;25.60;99.90;;;;;;4975785;28;20646;-86
2021/06/27 10:03:05;;;;;;;12.10;10.73;;;25.40;99.90;;;;;;4972484;28;20686;-79
2021/06/27 10:05:33;;;;;;;13.82;9.57;;;25.50;99.90;;;;;;4974574;28;20173;-83
2021/06/27 10:07:58;;;;;;;11.15;10.05;;;25.60;99.90;;;;;;4975570;28;20173;-84
2021/06/27 10:10:24;;;;;;;15.02;10.57;;;25.70;99.90;;;;;;4975665;28;20170;-80
2021/06/27 10:12:50;;;;;;;11.35;10.18;;;25.90;99.90;;;;;;4975761;28;20678;-84
2021/06/27 10:15:15;;;;;;;11.43;10.30;;;25.90;99.90;;;;;;4976403;28;20174;-84
2021/06/27 10:17:42;;;;;;;10.48;9.55;;;25.80;99.90;;;;;;4991772;28;20217;-84
2021/06/27 10:20:13;;;;;;;10.20;9.10;;;25.90;99.90;;;;;;4974695;28;20224;-84
2021/06/27 10:22:40;;;;;;;9.48;8.63;;;26.30;99.90;;;;;;4975015;28;20543;-82
2021/06/27 10:25:10;;;;;;;12.48;9.30;;;26.50;99.90;;;;;;4973969;28;20184;-81
2021/06/27 10:27:37;;;;;;;10.20;9.40;;;26.70;99.90;;;;;;4973735;28;20626;-82
2021/06/27 10:30:05;;;;;;;10.82;9.73;;;26.70;99.90;;;;;;4973767;28;20685;-85
2021/06/27 10:32:31;;;;;;;11.02;10.13;;;26.80;99.90;;;;;;4976263;28;20197;-83
2021/06/27 10:34:58;;;;;;;11.63;8.90;;;26.70;99.90;;;;;;4992623;28;20177;-84
2021/06/27 10:37:38;;;;;;;10.55;9.55;;;26.60;99.90;;;;;;4974972;28;20205;-83
2021/06/27 10:40:04;;;;;;;9.77;8.85;;;26.50;99.90;;;;;;4976077;28;20170;-83
2021/06/27 10:42:48;;;;;;;9.90;8.45;;;27.20;99.90;;;;;;4974409;28;20605;-84
2021/06/27 10:45:16;;;;;;;9.68;8.90;;;27.70;99.90;;;;;;4973917;28;20649;-80
2021/06/27 10:47:41;;;;;;;9.38;8.50;;;27.60;99.90;;;;;;4975068;28;20177;-81
2021/06/27 10:50:09;;;;;;;16.00;9.15;;;27.70;99.90;;;;;;4974069;28;20166;-87
2021/06/27 10:52:55;;;;;;;14.48;8.38;;;27.70;99.90;;;;;;4973814;28;20329;-81
2021/06/27 10:55:26;;;;;;;12.75;9.50;;;28.10;99.90;;;;;;4975016;28;20628;-82
2021/06/27 10:58:02;;;;;;;9.30;8.43;;;28.10;99.90;;;;;;4973449;28;20206;-81
2021/06/27 11:00:52;;;;;;;8.68;8.07;;;27.50;99.90;;;;;;4974834;28;20284;-84
2021/06/27 11:03:34;;;;;;;9.48;8.70;;;27.60;99.90;;;;;;4974726;28;20194;-82
2021/06/27 11:06:03;;;;;;;9.80;8.68;;;27.20;99.90;;;;;;4975864;28;20522;-82
2021/06/27 11:08:43;;;;;;;9.68;7.85;;;27.20;99.90;;;;;;4974980;28;20172;-87
2021/06/27 11:11:13;;;;;;;9.27;8.48;;;27.10;99.90;;;;;;4974827;28;20545;-87
2021/06/27 11:13:39;;;;;;;8.77;8.00;;;27.20;99.90;;;;;;4975601;28;20186;-85
2021/06/27 11:16:17;;;;;;;8.85;7.97;;;26.90;99.90;;;;;;4978077;28;20174;-86
2021/06/27 11:18:49;;;;;;;8.13;7.10;;;26.70;99.90;;;;;;4975196;28;20228;-91
2021/06/27 11:21:18;;;;;;;8.77;7.95;;;27.00;99.90;;;;;;4976454;28;20174;-84
2021/06/27 11:23:47;;;;;;;7.93;7.32;;;27.10;99.90;;;;;;4977099;28;20193;-86
2021/06/27 11:26:37;;;;;;;8.27;7.57;;;27.00;99.90;;;;;;4974036;28;20178;-94
2021/06/27 11:29:23;;;;;;;10.63;8.45;;;27.10;99.90;;;;;;4976140;28;20213;-90
2021/06/27 11:31:52;;;;;;;7.90;7.30;;;27.00;99.90;;;;;;4977591;28;20170;-93
2021/06/27 11:34:21;;;;;;;8.38;7.72;;;27.20;99.90;;;;;;4979432;28;20201;-91
2021/06/27 11:36:57;;;;;;;14.65;7.22;;;27.60;99.90;;;;;;4979527;28;20180;-93
2021/06/27 11:39:45;;;;;;;8.82;7.90;;;27.90;99.90;;;;;;4976995;28;20213;-89
2021/06/27 11:42:43;;;;;;;7.57;6.97;;;28.00;99.90;;;;;;4976727;28;20244;-83
2021/06/27 11:45:24;;;;;;;8.00;7.40;;;28.10;99.90;;;;;;4992688;28;20193;-91
2021/06/27 11:47:49;;;;;;;8.43;7.32;;;28.30;99.90;;;;;;4984291;28;20182;-94
2021/06/27 11:50:22;;;;;;;8.10;6.43;;;28.20;99.90;;;;;;4981049;28;20205;-95
2021/06/27 11:52:52;;;;;;;7.30;6.57;;;28.20;99.90;;;;;;4975948;28;20182;-89
2021/06/27 11:55:17;;;;;;;12.57;7.40;;;28.20;99.90;;;;;;4976596;28;20193;-92
2021/06/27 11:57:44;;;;;;;7.60;6.80;;;28.10;99.90;;;;;;4978789;28;20212;-94
2021/06/27 12:00:14;;;;;;;9.20;6.50;;;28.00;99.90;;;;;;4976003;28;20193;-84
2021/06/27 12:02:40;;;;;;;9.02;7.70;;;28.10;99.90;;;;;;4977916;28;20253;-95
2021/06/27 12:05:11;;;;;;;7.47;6.97;;;27.90;99.90;;;;;;4976572;28;20216;-81
2021/06/27 12:07:42;;;;;;;7.53;6.95;;;27.90;99.90;;;;;;4973283;28;20269;-85
2021/06/27 12:10:17;;;;;;;7.63;7.00;;;27.80;99.90;;;;;;4973593;28;20174;-87
2021/06/27 12:13:23;;;;;;;7.25;6.50;;;27.70;99.90;;;;;;4973227;28;20209;-86
2021/06/27 12:15:50;;;;;;;8.07;7.47;;;27.70;99.90;;;;;;4972799;28;20658;-83
2021/06/27 12:18:23;;;;;;;9.25;7.32;;;27.50;99.90;;;;;;4972469;28;20211;-84
2021/06/27 12:20:53;;;;;;;11.13;8.00;;;27.50;99.90;;;;;;4972579;28;20182;-84
2021/06/27 12:23:26;;;;;;;8.13;6.85;;;27.80;99.90;;;;;;4972922;28;20225;-86
2021/06/27 12:25:56;;;;;;;8.80;8.00;;;27.90;99.90;;;;;;4974276;28;20206;-85
2021/06/27 12:28:34;;;;;;;7.88;7.20;;;28.00;99.90;;;;;;4972038;28;20185;-84
2021/06/27 12:31:06;;;;;;;8.68;7.85;;;27.60;99.90;;;;;;4973097;28;20237;-85
2021/06/27 12:33:42;;;;;;;7.75;7.15;;;27.50;99.90;;;;;;4972565;28;20292;-84